Time;durP1;ratioP1;P1;durP2;ratioP2;P2;SDS_P1;SDS_P2;PMS_P1;PMS_P2;Temp;Humidity;BMP_temperature;BMP_pressure;BME280_temperature;BME280_humidity;BME280_pressure;Samples;Min_cycle;Max_cycle;Signal;HPM_P1;HPM_P2
2021/09/05 00:01:50;;;;;;;31.00;19.40;;;12.50;99.90;;;;;;5094831;28;20070;-70
2021/09/05 00:04:16;;;;;;;32.78;20.20;;;12.50;99.90;;;;;;5094832;28;20027;-70
2021/09/05 00:06:41;;;;;;;37.13;19.08;;;12.50;99.90;;;;;;5094761;28;20461;-70
2021/09/05 00:09:07;;;;;;;36.08;20.02;;;12.50;99.90;;;;;;5076006;28;20039;-70
2021/09/05 00:11:33;;;;;;;31.42;19.38;;;12.50;99.90;;;;;;5094360;28;20024;-70
2021/09/05 00:13:59;;;;;;;32.95;20.20;;;12.40;99.90;;;;;;5076107;28;20016;-70
2021/09/05 00:16:24;;;;;;;41.00;21.10;;;12.40;99.90;;;;;;5094616;28;20020;-70
2021/09/05 00:18:50;;;;;;;38.95;19.48;;;12.30;99.90;;;;;;5093144;28;20020;-70
2021/09/05 00:21:15;;;;;;;35.92;19.85;;;12.30;99.90;;;;;;5093971;28;20507;-70
2021/09/05 00:23:41;;;;;;;37.53;21.08;;;12.30;99.90;;;;;;5094465;28;20089;-70
2021/09/05 00:26:08;;;;;;;41.13;21.27;;;12.30;99.90;;;;;;5094194;28;20034;-70
2021/09/05 00:28:34;;;;;;;36.03;20.90;;;12.30;99.90;;;;;;5093514;28;20090;-70
2021/09/05 00:31:00;;;;;;;39.03;20.75;;;12.40;99.90;;;;;;5094364;28;20060;-70
2021/09/05 00:33:26;;;;;;;37.63;19.98;;;12.40;99.90;;;;;;5094108;28;20027;-70
2021/09/05 00:35:52;;;;;;;33.30;18.80;;;12.40;99.90;;;;;;5094387;28;20033;-70
2021/09/05 00:38:17;;;;;;;34.00;19.15;;;12.40;99.90;;;;;;5094380;28;20378;-70
2021/09/05 00:40:43;;;;;;;36.85;19.00;;;12.40;99.90;;;;;;5092852;28;20141;-70
2021/09/05 00:43:08;;;;;;;37.88;20.27;;;12.30;99.90;;;;;;5094300;28;20461;-70
2021/09/05 00:45:34;;;;;;;32.20;18.95;;;12.30;99.90;;;;;;5075477;28;20028;-70
2021/09/05 00:48:00;;;;;;;36.28;20.58;;;12.30;99.90;;;;;;5094242;28;20113;-70
2021/09/05 00:50:27;;;;;;;34.53;19.60;;;12.20;99.90;;;;;;5092606;28;20044;-70
2021/09/05 00:52:53;;;;;;;33.72;20.65;;;12.20;99.90;;;;;;5094185;28;20047;-70
2021/09/05 00:55:19;;;;;;;44.97;21.38;;;12.20;99.90;;;;;;5093889;28;20020;-70
2021/09/05 00:57:46;;;;;;;37.22;21.05;;;12.10;99.90;;;;;;5094125;28;20393;-70
2021/09/05 01:00:13;;;;;;;34.05;20.58;;;12.10;99.90;;;;;;5092858;28;20024;-70
2021/09/05 01:02:38;;;;;;;42.05;21.33;;;12.10;99.90;;;;;;5075757;28;20416;-70
2021/09/05 01:05:05;;;;;;;36.03;20.52;;;12.10;99.90;;;;;;5094057;28;20016;-70
2021/09/05 01:07:31;;;;;;;34.88;19.70;;;12.00;99.90;;;;;;5093464;28;20021;-70
2021/09/05 01:09:58;;;;;;;36.70;20.55;;;12.10;99.90;;;;;;5093774;28;20050;-70
2021/09/05 01:12:25;;;;;;;36.75;20.23;;;12.00;99.90;;;;;;5093417;28;20283;-70
2021/09/05 01:14:50;;;;;;;34.42;20.20;;;11.90;99.90;;;;;;5093978;28;20027;-70
2021/09/05 01:17:16;;;;;;;42.58;20.33;;;11.90;99.90;;;;;;5093352;28;20028;-70
2021/09/05 01:19:41;;;;;;;40.17;21.70;;;11.90;99.90;;;;;;5093894;28;20070;-70
2021/09/05 01:22:07;;;;;;;37.40;21.08;;;11.80;99.90;;;;;;5092437;28;20029;-70
2021/09/05 01:24:32;;;;;;;39.28;20.40;;;11.80;99.90;;;;;;5093869;28;20047;-70
2021/09/05 01:26:58;;;;;;;38.33;21.60;;;11.80;99.90;;;;;;5092028;28;20046;-70
2021/09/05 01:29:24;;;;;;;37.88;21.33;;;11.90;99.90;;;;;;5092013;28;20028;-70
2021/09/05 01:31:52;;;;;;;40.38;20.88;;;12.00;99.90;;;;;;5091944;28;20444;-70
2021/09/05 01:34:20;;;;;;;33.45;18.83;;;12.00;99.90;;;;;;5093541;28;20032;-70
2021/09/05 01:36:47;;;;;;;33.50;19.75;;;12.00;99.90;;;;;;5093762;28;20048;-70
2021/09/05 01:39:14;;;;;;;36.55;19.10;;;12.10;99.90;;;;;;5092590;28;20023;-71
2021/09/05 01:41:41;;;;;;;37.88;19.42;;;12.10;99.90;;;;;;5092299;28;20028;-71
2021/09/05 01:44:10;;;;;;;34.40;19.55;;;12.10;99.90;;;;;;5093739;28;20038;-70
2021/09/05 01:46:36;;;;;;;40.05;21.00;;;12.10;99.90;;;;;;5093406;28;20074;-70
2021/09/05 01:49:02;;;;;;;38.42;20.88;;;12.10;99.90;;;;;;5093630;28;20366;-70
2021/09/05 01:51:28;;;;;;;38.95;19.95;;;12.10;99.90;;;;;;5074746;28;20139;-70
2021/09/05 01:53:53;;;;;;;41.10;20.73;;;12.10;99.90;;;;;;5091783;28;20052;-70
2021/09/05 01:56:19;;;;;;;35.17;21.05;;;12.10;99.90;;;;;;5091767;28;20024;-70
2021/09/05 01:58:44;;;;;;;37.00;20.58;;;12.20;99.90;;;;;;5095237;28;20024;-71
2021/09/05 02:01:10;;;;;;;38.58;20.77;;;12.10;99.90;;;;;;5096992;28;20032;-71
2021/09/05 02:03:36;;;;;;;36.42;21.50;;;12.00;99.90;;;;;;5096945;28;20032;-70
2021/09/05 02:06:02;;;;;;;41.38;21.80;;;12.00;99.90;;;;;;5095704;28;20426;-70
2021/09/05 02:08:27;;;;;;;41.30;20.45;;;12.00;99.90;;;;;;5096841;28;20480;-70
2021/09/05 02:10:53;;;;;;;36.22;21.02;;;11.90;99.90;;;;;;5096391;28;20105;-70
2021/09/05 02:13:19;;;;;;;41.78;20.58;;;11.80;99.90;;;;;;5096999;28;20378;-71
2021/09/05 02:15:44;;;;;;;35.70;21.38;;;11.80;99.90;;;;;;5096650;28;20031;-70
2021/09/05 02:18:10;;;;;;;39.35;21.73;;;11.70;99.90;;;;;;5096598;28;20100;-70
2021/09/05 02:20:35;;;;;;;36.58;21.25;;;11.60;99.90;;;;;;5096271;28;20032;-70
2021/09/05 02:23:01;;;;;;;45.22;22.60;;;11.60;99.90;;;;;;5096790;28;20046;-71
2021/09/05 02:25:26;;;;;;;39.10;22.23;;;11.60;99.90;;;;;;5094922;28;20047;-70
2021/09/05 02:27:52;;;;;;;39.70;22.77;;;11.50;99.90;;;;;;5096659;28;20024;-70
2021/09/05 02:30:17;;;;;;;38.63;21.02;;;11.60;99.90;;;;;;5096047;28;20031;-71
2021/09/05 02:32:43;;;;;;;37.53;22.42;;;11.60;99.90;;;;;;5096602;28;20024;-70
2021/09/05 02:35:09;;;;;;;42.65;21.88;;;11.60;99.90;;;;;;5096596;28;20028;-70
2021/09/05 02:37:37;;;;;;;38.95;21.98;;;11.70;99.90;;;;;;5096555;28;20020;-70
2021/09/05 02:40:04;;;;;;;41.90;21.20;;;11.70;99.90;;;;;;5096216;28;20012;-70
2021/09/05 02:42:33;;;;;;;41.15;21.67;;;11.70;99.90;;;;;;5096449;28;20024;-70
2021/09/05 02:45:00;;;;;;;35.58;20.13;;;11.70;99.90;;;;;;5095258;28;20020;-70
2021/09/05 02:47:25;;;;;;;39.40;21.77;;;11.70;99.90;;;;;;5096344;28;20414;-70
2021/09/05 02:49:51;;;;;;;45.20;21.90;;;11.80;99.90;;;;;;5095772;28;20107;-70
2021/09/05 02:52:16;;;;;;;39.85;20.65;;;11.80;99.90;;;;;;5096164;28;20028;-70
2021/09/05 02:54:42;;;;;;;39.60;22.35;;;11.80;99.90;;;;;;5096189;28;20031;-70
2021/09/05 02:57:07;;;;;;;39.83;19.55;;;11.70;99.90;;;;;;5095597;28;20059;-70
2021/09/05 02:59:33;;;;;;;35.78;19.58;;;11.60;99.90;;;;;;5096052;28;20051;-70
2021/09/05 03:01:59;;;;;;;37.97;20.90;;;11.50;99.90;;;;;;5095768;28;20028;-70
2021/09/05 03:04:26;;;;;;;33.00;19.23;;;11.40;99.90;;;;;;5096001;28;20020;-70
2021/09/05 03:06:51;;;;;;;35.22;20.70;;;11.20;99.90;;;;;;5095952;28;20058;-70
2021/09/05 03:09:17;;;;;;;43.10;21.27;;;11.10;99.90;;;;;;5095879;28;20032;-70
2021/09/05 03:11:42;;;;;;;36.63;19.63;;;11.00;99.90;;;;;;5094610;28;20020;-70
2021/09/05 03:14:08;;;;;;;41.17;21.88;;;11.00;99.90;;;;;;5077124;28;20039;-71
2021/09/05 03:16:34;;;;;;;40.13;21.30;;;10.90;99.90;;;;;;5095477;28;20063;-71
2021/09/05 03:18:59;;;;;;;37.70;22.65;;;10.80;99.90;;;;;;5095459;28;20028;-71
2021/09/05 03:21:25;;;;;;;46.10;24.27;;;10.70;99.90;;;;;;5094105;28;20024;-71
2021/09/05 03:23:50;;;;;;;50.30;23.38;;;10.70;99.90;;;;;;5095628;28;20059;-70
2021/09/05 03:26:16;;;;;;;43.10;23.50;;;10.60;99.90;;;;;;5093731;28;20031;-71
2021/09/05 03:28:41;;;;;;;47.80;25.25;;;10.50;99.90;;;;;;5095489;28;20042;-70
2021/09/05 03:31:07;;;;;;;51.90;24.98;;;10.50;99.90;;;;;;5095381;28;20028;-71
2021/09/05 03:33:33;;;;;;;48.85;26.33;;;10.50;99.90;;;;;;5095400;28;20064;-72
2021/09/05 03:35:58;;;;;;;46.22;24.80;;;10.40;99.90;;;;;;5093563;28;20496;-71
2021/09/05 03:38:23;;;;;;;49.10;26.77;;;10.40;99.90;;;;;;5094129;28;20028;-70
2021/09/05 03:40:49;;;;;;;43.17;24.13;;;10.40;99.90;;;;;;5095293;28;20490;-71
2021/09/05 03:43:15;;;;;;;42.55;24.27;;;10.30;99.90;;;;;;5093396;28;20032;-70
2021/09/05 03:45:40;;;;;;;61.88;27.08;;;10.30;99.90;;;;;;5093378;28;20052;-71
2021/09/05 03:48:06;;;;;;;54.20;27.23;;;10.20;99.90;;;;;;5094013;28;20036;-71
2021/09/05 03:50:31;;;;;;;54.25;26.15;;;10.20;99.90;;;;;;5094440;28;20494;-71
2021/09/05 03:52:57;;;;;;;43.38;24.25;;;10.10;99.90;;;;;;5076426;28;20359;-71
2021/09/05 03:55:22;;;;;;;41.67;23.60;;;10.10;99.90;;;;;;5095010;28;20031;-71
2021/09/05 03:57:48;;;;;;;41.00;23.13;;;10.10;99.90;;;;;;5095266;28;20032;-71
2021/09/05 04:00:13;;;;;;;46.05;24.30;;;10.00;99.90;;;;;;5093197;28;20027;-71
2021/09/05 04:02:39;;;;;;;52.33;26.50;;;9.90;99.90;;;;;;5094867;28;20452;-71
2021/09/05 04:05:06;;;;;;;46.38;25.20;;;9.90;99.90;;;;;;5094812;28;20032;-71
2021/09/05 04:07:34;;;;;;;50.10;25.05;;;9.90;99.90;;;;;;5094839;28;20039;-71
2021/09/05 04:10:14;;;;;;;47.63;24.17;;;9.80;99.90;;;;;;5094803;28;20097;-71
2021/09/05 04:12:42;;;;;;;44.97;24.77;;;9.80;99.90;;;;;;5094742;28;20023;-70
2021/09/05 04:15:09;;;;;;;43.55;22.30;;;9.80;99.90;;;;;;5094438;28;20016;-70
2021/09/05 04:17:35;;;;;;;45.88;24.15;;;9.70;99.90;;;;;;5094675;28;20088;-71
2021/09/05 04:20:00;;;;;;;45.72;24.23;;;9.70;99.90;;;;;;5094315;28;20423;-71
2021/09/05 04:22:27;;;;;;;42.85;22.88;;;9.70;99.90;;;;;;5094202;28;20055;-71
2021/09/05 04:24:53;;;;;;;44.85;23.77;;;9.60;99.90;;;;;;5094284;28;20377;-71
2021/09/05 04:27:18;;;;;;;51.45;24.63;;;9.60;99.90;;;;;;5094512;28;20025;-71
2021/09/05 04:29:44;;;;;;;40.65;22.60;;;9.60;99.90;;;;;;5094511;28;20069;-71
2021/09/05 04:32:10;;;;;;;45.80;24.55;;;9.50;99.90;;;;;;5093845;28;20492;-71
2021/09/05 04:34:36;;;;;;;52.72;26.13;;;9.50;99.90;;;;;;5094087;28;20024;-71
2021/09/05 04:37:01;;;;;;;65.25;27.67;;;9.50;99.90;;;;;;5094414;28;20024;-71
2021/09/05 04:39:27;;;;;;;59.33;28.40;;;9.60;99.90;;;;;;5094348;28;20468;-71
2021/09/05 04:41:52;;;;;;;72.50;30.45;;;9.60;99.90;;;;;;5092433;28;20046;-71
2021/09/05 04:44:18;;;;;;;71.30;30.90;;;9.70;99.90;;;;;;5094250;28;20475;-71
2021/09/05 04:46:44;;;;;;;68.50;31.05;;;9.80;99.90;;;;;;5092762;28;20381;-71
2021/09/05 04:49:10;;;;;;;70.93;30.42;;;9.90;99.90;;;;;;5093936;28;20032;-71
2021/09/05 04:51:35;;;;;;;68.80;30.20;;;10.00;99.90;;;;;;5093491;28;20036;-71
2021/09/05 04:54:01;;;;;;;67.32;28.95;;;10.00;99.90;;;;;;5092357;28;20032;-71
2021/09/05 04:56:27;;;;;;;56.88;26.80;;;10.00;99.90;;;;;;5094165;28;20056;-71
2021/09/05 04:58:52;;;;;;;61.80;28.92;;;10.00;99.90;;;;;;5094086;28;20031;-71
2021/09/05 05:01:18;;;;;;;57.63;27.52;;;10.00;99.90;;;;;;5093516;28;20073;-71
2021/09/05 05:03:43;;;;;;;63.50;27.20;;;9.90;99.90;;;;;;5094074;28;20032;-71
2021/09/05 05:06:09;;;;;;;62.08;28.02;;;9.90;99.90;;;;;;5075418;28;20042;-71
2021/09/05 05:08:35;;;;;;;47.13;24.52;;;9.80;99.90;;;;;;5094042;28;20070;-71
2021/09/05 05:11:01;;;;;;;46.17;23.95;;;9.80;99.90;;;;;;5093666;28;20527;-71
2021/09/05 05:13:27;;;;;;;50.72;24.23;;;9.90;99.90;;;;;;5094041;28;20031;-71
2021/09/05 05:15:55;;;;;;;52.63;26.83;;;9.90;99.90;;;;;;5092534;28;20024;-71
2021/09/05 05:18:21;;;;;;;55.15;25.65;;;9.90;99.90;;;;;;5093969;28;20013;-71
2021/09/05 05:20:46;;;;;;;45.00;23.65;;;9.90;99.90;;;;;;5092084;28;20392;-71
2021/09/05 05:23:12;;;;;;;49.53;25.42;;;9.90;99.90;;;;;;5093890;28;20099;-71
2021/09/05 05:25:37;;;;;;;53.80;24.85;;;9.90;99.90;;;;;;5093586;28;20020;-71
2021/09/05 05:28:03;;;;;;;40.85;22.38;;;9.90;99.90;;;;;;5093293;28;20036;-71
2021/09/05 05:30:28;;;;;;;41.95;23.33;;;10.00;99.90;;;;;;5093468;28;20028;-70
2021/09/05 05:32:55;;;;;;;42.47;22.73;;;10.00;99.90;;;;;;5094523;28;20035;-70
2021/09/05 05:35:21;;;;;;;49.33;22.80;;;10.10;99.90;;;;;;5096494;28;20028;-71
2021/09/05 05:37:46;;;;;;;55.03;24.65;;;10.20;99.90;;;;;;5097677;28;20028;-71
2021/09/05 05:40:12;;;;;;;51.40;24.27;;;10.30;99.90;;;;;;5097367;28;20050;-71
2021/09/05 05:42:38;;;;;;;48.67;24.20;;;10.50;99.90;;;;;;5097659;28;20020;-71
2021/09/05 05:45:04;;;;;;;45.97;24.13;;;10.60;99.90;;;;;;5097540;28;20048;-71
2021/09/05 05:47:29;;;;;;;49.13;24.70;;;10.80;99.90;;;;;;5095705;28;20359;-71
2021/09/05 05:49:55;;;;;;;37.67;20.08;;;11.20;99.90;;;;;;5097159;28;20086;-72
2021/09/05 05:52:20;;;;;;;30.77;17.85;;;11.70;99.90;;;;;;5097334;28;20085;-71
2021/09/05 05:54:46;;;;;;;28.70;16.05;;;12.40;99.90;;;;;;5096793;28;20020;-72
2021/09/05 05:57:11;;;;;;;27.90;15.70;;;13.40;99.90;;;;;;5096312;28;20020;-72
2021/09/05 05:59:38;;;;;;;26.88;15.18;;;14.30;99.90;;;;;;5096151;28;20020;-72
2021/09/05 06:02:04;;;;;;;27.67;15.13;;;15.10;99.90;;;;;;5079087;28;20114;-71
2021/09/05 06:04:29;;;;;;;23.80;14.25;;;15.70;99.90;;;;;;5097217;28;20059;-71
2021/09/05 06:06:55;;;;;;;22.40;14.02;;;16.20;99.90;;;;;;5096019;28;20028;-72
2021/09/05 06:09:21;;;;;;;21.90;14.13;;;16.60;99.90;;;;;;5097161;28;20031;-72
2021/09/05 06:11:46;;;;;;;20.60;13.27;;;17.00;99.90;;;;;;5096745;28;20047;-72
2021/09/05 06:14:12;;;;;;;26.20;13.02;;;17.30;99.90;;;;;;5095223;28;20115;-72
2021/09/05 06:16:38;;;;;;;20.98;14.05;;;17.70;99.90;;;;;;5095736;28;20058;-71
2021/09/05 06:19:03;;;;;;;19.58;12.90;;;18.60;99.90;;;;;;5095503;28;20052;-72
2021/09/05 06:21:29;;;;;;;20.35;13.95;;;18.60;99.90;;;;;;5095026;28;20035;-72
2021/09/05 06:23:55;;;;;;;19.50;13.73;;;18.80;99.90;;;;;;5096791;28;20103;-71
2021/09/05 06:26:20;;;;;;;21.52;13.02;;;18.50;99.90;;;;;;5095570;28;20031;-71
2021/09/05 06:28:46;;;;;;;21.80;13.65;;;18.70;99.90;;;;;;5095283;28;20035;-72
2021/09/05 06:31:11;;;;;;;24.08;13.35;;;18.60;99.90;;;;;;5096028;28;20028;-72
2021/09/05 06:33:37;;;;;;;20.50;13.13;;;19.30;99.90;;;;;;5096652;28;20031;-71
2021/09/05 06:36:02;;;;;;;22.05;13.25;;;19.30;99.90;;;;;;5094793;28;20024;-71
2021/09/05 06:38:28;;;;;;;16.13;12.30;;;19.60;99.90;;;;;;5096270;28;20028;-72
2021/09/05 06:40:53;;;;;;;19.98;12.95;;;19.40;99.90;;;;;;5095951;28;20031;-72
2021/09/05 06:43:19;;;;;;;19.80;12.52;;;20.60;99.90;;;;;;5096276;28;20032;-72
2021/09/05 06:45:45;;;;;;;17.38;12.27;;;21.20;99.90;;;;;;5095069;28;20054;-72
2021/09/05 06:48:10;;;;;;;17.75;12.48;;;21.50;99.90;;;;;;5096321;28;20480;-71
2021/09/05 06:50:36;;;;;;;15.88;12.57;;;21.00;99.90;;;;;;5095484;28;20044;-71
2021/09/05 06:53:01;;;;;;;19.10;12.55;;;21.80;99.90;;;;;;5096002;28;20028;-71
2021/09/05 06:55:27;;;;;;;20.02;12.15;;;21.80;99.90;;;;;;5096198;28;20018;-71
2021/09/05 06:57:53;;;;;;;24.52;13.05;;;21.60;99.90;;;;;;5095969;28;20142;-71
2021/09/05 07:00:19;;;;;;;18.23;13.30;;;22.30;99.90;;;;;;5096109;28;20473;-72
2021/09/05 07:02:44;;;;;;;17.58;13.50;;;22.60;99.90;;;;;;5094629;28;20042;-71
2021/09/05 07:05:11;;;;;;;19.05;12.40;;;21.60;99.90;;;;;;5095763;28;20046;-71
2021/09/05 07:07:36;;;;;;;22.27;14.20;;;21.70;99.90;;;;;;5094199;28;20024;-71
2021/09/05 07:10:02;;;;;;;19.90;13.93;;;22.00;99.90;;;;;;5095841;28;20177;-71
2021/09/05 07:12:28;;;;;;;23.17;14.05;;;21.90;99.90;;;;;;5095862;28;20082;-71
2021/09/05 07:14:53;;;;;;;17.23;13.38;;;22.60;99.90;;;;;;5095511;28;20413;-71
2021/09/05 07:17:19;;;;;;;18.73;12.73;;;22.50;99.90;;;;;;5095739;28;20035;-71
2021/09/05 07:19:44;;;;;;;17.63;13.15;;;21.80;99.90;;;;;;5095423;28;20030;-71
2021/09/05 07:22:10;;;;;;;22.25;13.70;;;21.60;99.90;;;;;;5095391;28;20046;-71
2021/09/05 07:24:35;;;;;;;21.48;13.68;;;21.00;99.90;;;;;;5095613;28;20093;-71
2021/09/05 07:27:01;;;;;;;17.77;13.73;;;21.50;99.90;;;;;;5095577;28;20030;-71
2021/09/05 07:29:26;;;;;;;18.67;12.82;;;21.40;99.90;;;;;;5095532;28;20060;-71
2021/09/05 07:31:52;;;;;;;19.80;13.13;;;21.70;99.90;;;;;;5076731;28;20063;-71
2021/09/05 07:34:17;;;;;;;18.85;13.32;;;23.00;99.90;;;;;;5094300;28;20020;-71
2021/09/05 07:36:43;;;;;;;16.67;12.70;;;23.00;99.90;;;;;;5094817;28;20024;-71
2021/09/05 07:39:11;;;;;;;21.77;13.80;;;23.90;99.90;;;;;;5095328;28;20020;-71
2021/09/05 07:41:37;;;;;;;20.98;13.18;;;23.30;99.90;;;;;;5095369;28;20369;-71
2021/09/05 07:44:05;;;;;;;19.85;13.27;;;22.90;99.90;;;;;;5093477;28;20024;-71
2021/09/05 07:46:32;;;;;;;19.20;13.75;;;22.80;99.90;;;;;;5095250;28;20020;-71
2021/09/05 07:48:57;;;;;;;20.58;14.05;;;22.20;99.90;;;;;;5094904;28;20023;-71
2021/09/05 07:51:24;;;;;;;16.83;12.95;;;23.30;99.90;;;;;;5094356;28;20439;-71
2021/09/05 07:53:54;;;;;;;19.95;13.65;;;23.20;99.90;;;;;;5095114;28;20381;-72
2021/09/05 07:56:20;;;;;;;19.17;13.68;;;23.60;99.90;;;;;;5094125;28;20472;-71
2021/09/05 07:58:47;;;;;;;17.45;13.55;;;23.00;99.90;;;;;;5095045;28;20111;-71
2021/09/05 08:01:14;;;;;;;18.85;13.43;;;24.50;99.90;;;;;;5094706;28;20063;-71
2021/09/05 08:03:40;;;;;;;20.75;13.95;;;24.70;99.90;;;;;;5094972;28;20024;-71
2021/09/05 08:06:06;;;;;;;18.45;13.63;;;23.70;99.90;;;;;;5093105;28;20090;-71
2021/09/05 08:08:35;;;;;;;22.92;14.98;;;24.00;99.90;;;;;;5094612;28;20070;-71
2021/09/05 08:11:01;;;;;;;20.40;14.52;;;23.50;99.90;;;;;;5094781;28;20024;-71
2021/09/05 08:13:26;;;;;;;22.52;14.30;;;23.50;99.90;;;;;;5094235;28;20024;-71
2021/09/05 08:15:52;;;;;;;20.83;13.88;;;23.40;99.90;;;;;;5093006;28;20032;-71
2021/09/05 08:18:17;;;;;;;21.73;14.27;;;24.60;99.90;;;;;;5094425;28;20487;-71
2021/09/05 08:20:43;;;;;;;17.23;13.88;;;23.90;99.90;;;;;;5094625;28;20101;-71
2021/09/05 08:23:08;;;;;;;23.25;15.20;;;25.20;99.90;;;;;;5092921;28;20474;-71
2021/09/05 08:25:34;;;;;;;20.67;14.73;;;24.90;99.90;;;;;;5093975;28;20032;-71
2021/09/05 08:27:59;;;;;;;20.10;15.15;;;25.20;99.90;;;;;;5094518;28;20046;-71
2021/09/05 08:30:25;;;;;;;21.63;14.27;;;25.10;99.90;;;;;;5094383;28;20038;-71
2021/09/05 08:32:50;;;;;;;22.00;15.50;;;25.00;99.90;;;;;;5092646;28;20054;-71
2021/09/05 08:35:16;;;;;;;22.80;15.05;;;25.80;99.90;;;;;;5094121;28;20020;-71
2021/09/05 08:37:42;;;;;;;21.98;15.40;;;26.20;99.90;;;;;;5094096;28;20020;-71
2021/09/05 08:40:08;;;;;;;22.17;15.45;;;24.80;99.90;;;;;;5092884;28;20388;-71
2021/09/05 08:42:34;;;;;;;21.23;14.40;;;24.90;99.90;;;;;;5094331;28;20024;-71
2021/09/05 08:45:02;;;;;;;19.80;14.38;;;24.60;99.90;;;;;;5094038;28;20031;-71
2021/09/05 08:47:33;;;;;;;19.98;14.52;;;24.40;99.90;;;;;;5094031;28;20059;-71
2021/09/05 08:50:01;;;;;;;20.83;15.48;;;24.10;99.90;;;;;;5093430;28;20024;-71
2021/09/05 08:52:26;;;;;;;21.70;16.02;;;24.60;99.90;;;;;;5094164;28;20020;-71
2021/09/05 08:54:52;;;;;;;23.13;15.70;;;24.60;99.90;;;;;;5092333;28;20136;-71
2021/09/05 08:57:17;;;;;;;21.55;15.63;;;25.00;99.90;;;;;;5094437;28;20028;-71
2021/09/05 08:59:43;;;;;;;17.05;14.80;;;24.60;99.90;;;;;;5092649;28;20024;-71
2021/09/05 09:02:08;;;;;;;21.40;16.02;;;25.50;99.90;;;;;;5093829;28;20028;-70
2021/09/05 09:04:37;;;;;;;23.08;16.58;;;25.80;99.90;;;;;;5093795;28;20522;-70
2021/09/05 09:07:12;;;;;;;22.23;15.77;;;25.40;99.90;;;;;;5095146;28;20016;-71
2021/09/05 09:09:59;;;;;;;20.50;16.00;;;25.00;99.90;;;;;;5097759;28;20069;-71
2021/09/05 09:12:42;;;;;;;23.40;16.35;;;24.90;99.90;;;;;;5098139;28;20024;-71
2021/09/05 09:15:29;;;;;;;22.77;16.75;;;25.60;99.90;;;;;;5097639;28;20016;-71
2021/09/05 09:17:58;;;;;;;22.77;16.73;;;24.50;99.90;;;;;;5097565;28;20020;-71
2021/09/05 09:20:43;;;;;;;27.17;17.65;;;25.30;99.90;;;;;;5097968;28;20099;-71
2021/09/05 09:23:18;;;;;;;23.75;17.48;;;25.10;99.90;;;;;;5097420;28;20029;-71
2021/09/05 09:28:44;;;;;;;22.67;18.25;;;25.00;99.90;;;;;;5068423;28;20460;-72
2021/09/05 09:31:27;;;;;;;24.40;18.02;;;24.60;99.90;;;;;;5073766;28;20116;-71
2021/09/05 09:33:55;;;;;;;21.10;16.50;;;24.50;99.90;;;;;;5069554;28;20021;-72
2021/09/05 09:36:22;;;;;;;24.58;17.70;;;25.30;99.90;;;;;;5069515;28;20047;-71
2021/09/05 09:38:57;;;;;;;23.80;17.73;;;24.20;99.90;;;;;;5069311;28;20056;-71
2021/09/05 09:41:29;;;;;;;27.73;18.23;;;25.00;99.90;;;;;;5068281;28;20505;-71
2021/09/05 09:44:00;;;;;;;19.40;16.03;;;25.10;99.90;;;;;;5069035;28;20031;-71
2021/09/05 09:46:31;;;;;;;21.85;17.00;;;25.90;99.90;;;;;;5068122;28;20313;-71
2021/09/05 09:48:59;;;;;;;23.30;17.40;;;26.40;99.90;;;;;;5087785;28;20029;-71
2021/09/05 09:51:25;;;;;;;20.02;16.80;;;25.70;99.90;;;;;;5091178;28;20120;-71
2021/09/05 09:53:52;;;;;;;21.83;16.55;;;25.70;99.90;;;;;;5091138;28;20020;-72
2021/09/05 09:56:18;;;;;;;21.90;17.02;;;26.30;99.90;;;;;;5090895;28;20107;-71
2021/09/05 09:58:46;;;;;;;21.98;17.25;;;26.10;99.90;;;;;;5089900;28;20059;-71
2021/09/05 10:01:16;;;;;;;22.20;16.92;;;25.60;99.90;;;;;;5090965;28;20016;-71
2021/09/05 10:03:43;;;;;;;26.10;18.17;;;26.60;99.90;;;;;;5090940;28;20116;-71
2021/09/05 10:06:11;;;;;;;26.63;18.27;;;27.10;99.90;;;;;;5090881;28;20016;-71
2021/09/05 10:08:40;;;;;;;26.83;19.73;;;26.80;99.90;;;;;;5088942;28;20028;-71
2021/09/05 10:11:09;;;;;;;22.60;17.70;;;26.70;99.90;;;;;;5088898;28;20382;-71
2021/09/05 10:13:38;;;;;;;23.42;17.42;;;26.50;99.90;;;;;;5090511;28;20505;-71
2021/09/05 10:16:04;;;;;;;23.52;17.65;;;26.70;99.90;;;;;;5090735;28;20020;-71
2021/09/05 10:18:31;;;;;;;22.05;17.17;;;26.30;99.90;;;;;;5089538;28;20024;-72
2021/09/05 10:20:58;;;;;;;22.08;17.38;;;26.60;99.90;;;;;;5089267;28;20036;-71
2021/09/05 10:23:28;;;;;;;23.35;17.45;;;26.20;99.90;;;;;;5088768;28;20405;-72
2021/09/05 10:25:55;;;;;;;22.35;17.23;;;26.30;99.90;;;;;;5090575;28;20405;-71
2021/09/05 10:28:43;;;;;;;25.30;16.85;;;26.40;99.90;;;;;;5088629;28;20044;-71
2021/09/05 10:31:11;;;;;;;22.52;17.25;;;26.20;99.90;;;;;;5089845;28;20021;-72
2021/09/05 10:33:40;;;;;;;20.67;16.75;;;26.60;99.90;;;;;;5088705;28;20028;-71
2021/09/05 10:38:47;;;;;;;20.95;16.98;;;26.60;99.90;;;;;;5071652;28;20353;-70
2021/09/05 10:41:22;;;;;;;25.35;16.42;;;27.20;99.90;;;;;;5071099;28;20105;-72
2021/09/05 10:46:29;;;;;;;20.75;17.38;;;27.10;99.90;;;;;;5091880;28;20672;-72
2021/09/05 10:48:57;;;;;;;21.50;17.33;;;26.60;99.90;;;;;;5091329;28;20028;-72
2021/09/05 10:51:25;;;;;;;20.75;17.02;;;26.80;99.90;;;;;;5091553;28;20020;-72
2021/09/05 10:53:54;;;;;;;24.25;17.23;;;26.40;99.90;;;;;;5090078;28;20095;-72
2021/09/05 10:56:23;;;;;;;25.55;17.65;;;26.10;99.90;;;;;;5090482;28;20024;-71
2021/09/05 10:58:59;;;;;;;24.73;18.15;;;26.20;99.90;;;;;;5090851;28;20078;-72
2021/09/05 11:01:31;;;;;;;20.20;16.73;;;25.80;99.90;;;;;;5091363;28;20020;-71
2021/09/05 11:04:16;;;;;;;23.42;17.50;;;25.70;99.90;;;;;;5091190;28;20082;-71
2021/09/05 11:06:46;;;;;;;20.92;16.92;;;25.70;99.90;;;;;;5090675;28;20023;-71
2021/09/05 11:12:15;;;;;;;23.58;16.48;;;25.40;99.90;;;;;;5112270;27;20350;-71
2021/09/05 11:14:47;;;;;;;23.73;17.67;;;25.70;99.90;;;;;;5110451;28;20032;-71
2021/09/05 11:17:29;;;;;;;24.60;17.65;;;25.50;99.90;;;;;;5111937;28;20429;-72
2021/09/05 11:20:15;;;;;;;23.52;16.30;;;25.30;99.90;;;;;;5111600;28;20027;-72
2021/09/05 11:22:43;;;;;;;19.75;16.33;;;25.30;99.90;;;;;;5111174;28;20046;-72
2021/09/05 11:25:13;;;;;;;22.25;16.63;;;25.20;99.90;;;;;;5111479;28;20028;-71
2021/09/05 11:27:46;;;;;;;21.30;16.02;;;25.20;99.90;;;;;;5110241;28;20024;-71
2021/09/05 11:30:12;;;;;;;19.75;14.98;;;25.10;99.90;;;;;;5111549;28;20077;-72
2021/09/05 11:32:40;;;;;;;21.92;17.08;;;25.40;99.90;;;;;;5110170;28;20102;-72
2021/09/05 11:35:06;;;;;;;26.67;17.42;;;25.50;99.90;;;;;;5093966;28;20418;-72
2021/09/05 11:37:35;;;;;;;24.80;17.80;;;25.10;99.90;;;;;;5109667;28;20020;-72
2021/09/05 11:40:12;;;;;;;25.90;17.48;;;25.40;99.90;;;;;;5109662;28;20019;-72
2021/09/05 11:42:44;;;;;;;22.55;16.35;;;25.30;99.90;;;;;;5110855;28;20028;-72
2021/09/05 11:45:10;;;;;;;20.17;15.07;;;25.30;99.90;;;;;;5109537;28;20089;-72
2021/09/05 11:47:37;;;;;;;23.17;16.10;;;25.60;99.90;;;;;;5111348;28;20023;-72
2021/09/05 11:50:04;;;;;;;20.30;16.00;;;25.60;99.90;;;;;;5110951;28;20522;-72
2021/09/05 11:52:32;;;;;;;20.27;14.52;;;25.80;99.90;;;;;;5111248;28;20020;-72
2021/09/05 11:55:08;;;;;;;22.25;15.63;;;25.70;99.90;;;;;;5111197;28;20106;-72
2021/09/05 11:57:35;;;;;;;20.05;15.05;;;26.00;99.90;;;;;;5110000;28;20099;-72
2021/09/05 12:00:05;;;;;;;21.27;16.25;;;25.60;99.90;;;;;;5110537;28;20019;-72
2021/09/05 12:02:38;;;;;;;21.17;15.52;;;25.40;99.90;;;;;;5110488;28;20038;-72
2021/09/05 12:05:05;;;;;;;23.15;17.92;;;25.30;99.90;;;;;;5110749;28;20557;-72
2021/09/05 12:07:37;;;;;;;21.98;16.83;;;25.30;99.90;;;;;;5110942;28;20024;-72
2021/09/05 12:10:20;;;;;;;22.10;16.70;;;25.10;99.90;;;;;;5092256;28;20472;-72
2021/09/05 12:12:59;;;;;;;19.25;15.52;;;24.90;99.90;;;;;;5109080;28;20119;-72
2021/09/05 12:15:25;;;;;;;20.10;15.18;;;25.20;99.90;;;;;;5110843;28;20365;-72
2021/09/05 12:17:52;;;;;;;22.70;16.98;;;25.20;99.90;;;;;;5110814;28;20480;-72
2021/09/05 12:20:21;;;;;;;23.42;16.20;;;25.30;99.90;;;;;;5110708;28;20024;-72
2021/09/05 12:22:51;;;;;;;22.10;15.23;;;25.30;99.90;;;;;;5099434;28;20101;-72
2021/09/05 12:25:22;;;;;;;20.20;14.55;;;25.00;99.90;;;;;;5096767;28;20376;-72
2021/09/05 12:28:09;;;;;;;20.38;15.63;;;25.20;99.90;;;;;;5095817;28;20027;-72
2021/09/05 12:30:47;;;;;;;22.83;15.88;;;25.40;99.90;;;;;;5095107;28;20097;-72
2021/09/05 12:33:16;;;;;;;21.90;14.68;;;25.20;99.90;;;;;;5096845;28;20023;-71
2021/09/05 12:35:46;;;;;;;18.75;15.07;;;25.50;99.90;;;;;;5096807;28;20028;-72
2021/09/05 12:38:14;;;;;;;24.27;15.90;;;25.60;99.90;;;;;;5096273;28;20061;-72
2021/09/05 12:40:44;;;;;;;22.38;16.75;;;25.60;99.90;;;;;;5096690;28;20032;-71